createdAt,value
2019-01-12T00:02:34.000Z,12.87
2019-01-12T00:06:33.378Z,14.40
2019-01-12T00:10:32.039Z,15.53
2019-01-12T00:14:30.400Z,10.80
2019-01-12T00:18:29.043Z,17.70
2019-01-12T00:22:27.466Z,16.93
2019-01-12T00:26:25.871Z,16.30
2019-01-12T00:30:24.402Z,20.97
2019-01-12T00:34:23.153Z,19.00
2019-01-12T00:38:27.190Z,24.40
2019-01-12T00:42:47.989Z,22.07
2019-01-12T00:46:48.798Z,20.73
2019-01-12T00:50:47.185Z,19.23
2019-01-12T00:54:45.561Z,26.77
2019-01-12T00:58:43.978Z,20.93
2019-01-12T01:02:42.377Z,24.57
2019-01-12T01:06:41.182Z,17.73
2019-01-12T01:10:39.595Z,19.73
2019-01-12T01:14:41.086Z,19.37
2019-01-12T01:18:39.522Z,23.17
2019-01-12T01:22:41.647Z,24.33
2019-01-12T01:26:40.095Z,25.87
2019-01-12T01:30:42.926Z,26.17
2019-01-12T01:34:41.502Z,23.10
2019-01-12T01:38:39.886Z,18.93
2019-01-12T01:42:38.248Z,24.47
2019-01-12T01:46:38.394Z,24.90
2019-01-12T01:50:36.768Z,26.03
2019-01-12T01:54:35.127Z,25.43
2019-01-12T01:58:33.603Z,23.73
2019-01-12T02:02:32.011Z,20.60
2019-01-12T02:06:30.426Z,19.93
2019-01-12T02:10:28.813Z,24.07
2019-01-12T02:14:27.205Z,23.03
2019-01-12T02:18:25.539Z,21.33
2019-01-12T02:22:25.609Z,23.07
2019-01-12T02:26:25.949Z,25.63
2019-01-12T02:30:24.095Z,25.23
2019-01-12T02:34:22.622Z,23.73
2019-01-12T02:38:20.984Z,27.27
2019-01-12T02:42:19.285Z,15.80
2019-01-12T02:46:17.701Z,25.13
2019-01-12T02:50:16.096Z,26.07
2019-01-12T02:54:17.799Z,22.67
2019-01-12T02:58:16.291Z,27.20
2019-01-12T03:02:14.644Z,27.47
2019-01-12T03:06:15.060Z,23.37
2019-01-12T03:10:14.571Z,21.63
2019-01-12T03:18:31.989Z,21.73
2019-01-12T03:22:31.349Z,22.63
2019-01-12T03:26:29.758Z,31.80
2019-01-12T03:30:28.126Z,29.40
2019-01-12T03:34:26.776Z,25.53
2019-01-12T03:38:25.177Z,24.23
2019-01-12T03:42:23.561Z,29.00
2019-01-12T03:46:21.984Z,27.47
2019-01-12T03:50:20.350Z,25.90
2019-01-12T03:54:18.705Z,25.80
2019-01-12T03:58:17.098Z,29.20
2019-01-12T04:02:17.368Z,23.77
2019-01-12T04:06:15.685Z,24.10
2019-01-12T04:10:14.097Z,25.87
2019-01-12T04:14:12.820Z,26.90
2019-01-12T04:18:11.352Z,25.57
2019-01-12T04:22:09.737Z,28.67
2019-01-12T04:26:11.423Z,23.63
2019-01-12T04:30:14.918Z,22.47
2019-01-12T04:34:13.612Z,24.93
2019-01-12T04:38:12.014Z,19.63
2019-01-12T04:42:10.424Z,20.17
2019-01-12T04:46:08.794Z,23.00
2019-01-12T04:50:11.710Z,22.50
2019-01-12T04:54:11.736Z,21.93
2019-01-12T04:58:10.030Z,27.03
2019-01-12T05:02:08.459Z,20.77
2019-01-12T05:06:08.450Z,25.03
2019-01-12T05:10:09.904Z,23.90
2019-01-12T05:14:08.643Z,22.97
2019-01-12T05:18:07.083Z,19.53
2019-01-12T05:22:09.901Z,18.80
2019-01-12T05:26:05.416Z,24.40
2019-01-12T05:30:07.249Z,29.60
2019-01-12T05:34:05.643Z,25.63
2019-01-12T05:38:06.580Z,19.97
2019-01-12T05:42:04.976Z,25.33
2019-01-12T05:46:03.429Z,21.33
2019-01-12T05:50:01.856Z,21.70
2019-01-12T05:54:00.164Z,25.17
2019-01-12T05:58:01.231Z,19.23
2019-01-12T06:02:19.345Z,24.77
2019-01-12T06:06:17.928Z,23.63
2019-01-12T06:10:17.932Z,29.90
2019-01-12T06:14:16.326Z,26.33
2019-01-12T06:18:15.770Z,26.70
2019-01-12T06:22:14.427Z,30.77
2019-01-12T06:26:12.804Z,28.33
2019-01-12T06:30:17.714Z,32.07
2019-01-12T06:34:16.176Z,32.97
2019-01-12T06:38:14.599Z,32.80
2019-01-12T06:42:12.969Z,25.57
2019-01-12T06:46:11.359Z,22.50
2019-01-12T06:50:12.278Z,21.97
2019-01-12T06:54:12.132Z,22.23
2019-01-12T06:58:10.737Z,15.77
2019-01-12T07:02:11.061Z,15.83
2019-01-12T07:06:09.422Z,16.60
2019-01-12T07:10:10.766Z,20.73
2019-01-12T07:14:09.110Z,24.47
2019-01-12T07:18:09.013Z,22.73
2019-01-12T07:22:08.522Z,24.93
2019-01-12T07:26:06.911Z,24.57
2019-01-12T07:30:12.448Z,23.77
2019-01-12T07:34:11.154Z,30.50
2019-01-12T07:38:09.519Z,26.60
2019-01-12T07:42:07.897Z,30.67
2019-01-12T07:46:06.289Z,31.83
2019-01-12T07:50:08.510Z,33.33
2019-01-12T07:54:06.923Z,37.33
2019-01-12T07:58:05.254Z,33.27
2019-01-12T08:02:03.912Z,38.17
2019-01-12T08:06:03.183Z,30.07
2019-01-12T08:10:01.576Z,28.27
2019-01-12T08:14:02.182Z,26.20
2019-01-12T08:18:00.566Z,34.20
2019-01-12T08:21:58.954Z,28.03
2019-01-12T08:25:57.349Z,31.20
2019-01-12T08:29:55.735Z,35.00
2019-01-12T08:33:54.930Z,29.17
2019-01-12T08:37:53.238Z,30.13
2019-01-12T08:41:51.687Z,24.23
2019-01-12T08:45:57.875Z,26.20
2019-01-12T08:49:56.258Z,25.37
2019-01-12T08:53:54.621Z,29.73
2019-01-12T08:57:52.998Z,34.67
2019-01-12T09:01:51.397Z,27.33
2019-01-12T09:05:50.153Z,33.03
2019-01-12T09:09:48.515Z,28.73
2019-01-12T09:13:46.890Z,32.90
2019-01-12T09:17:45.278Z,29.00
2019-01-12T09:21:43.647Z,25.93
2019-01-12T09:25:42.038Z,28.37
2019-01-12T09:29:40.506Z,31.63
2019-01-12T09:33:38.880Z,35.57
2019-01-12T09:37:37.250Z,35.77
2019-01-12T09:41:35.639Z,27.60
2019-01-12T09:45:34.041Z,34.77
2019-01-12T09:49:32.455Z,35.70
2019-01-12T09:53:30.864Z,34.70
2019-01-12T09:57:29.278Z,39.77
2019-01-12T10:01:28.475Z,36.63
2019-01-12T10:05:27.197Z,38.60
2019-01-12T10:09:25.601Z,37.60
2019-01-12T10:13:23.972Z,39.10
2019-01-12T10:17:22.346Z,36.60
2019-01-12T10:21:20.743Z,33.80
2019-01-12T10:25:21.068Z,36.70
2019-01-12T10:29:19.532Z,35.23
2019-01-12T10:33:17.930Z,34.27
2019-01-12T10:37:35.748Z,39.10
2019-01-12T10:41:36.124Z,34.50
2019-01-12T10:45:34.509Z,37.97
2019-01-12T10:49:32.868Z,36.37
2019-01-12T10:53:31.316Z,39.47
2019-01-12T10:57:30.304Z,34.20
2019-01-12T11:01:28.752Z,38.03
2019-01-12T11:05:28.796Z,42.80
2019-01-12T11:09:27.140Z,37.80
2019-01-12T11:13:31.506Z,34.13
2019-01-12T11:17:29.883Z,43.27
2019-01-12T11:21:28.220Z,44.07
2019-01-12T11:25:26.615Z,37.77
2019-01-12T11:29:25.417Z,41.47
2019-01-12T11:33:23.840Z,37.50
2019-01-12T11:37:22.240Z,41.47
2019-01-12T11:41:20.636Z,35.90
2019-01-12T11:45:21.152Z,32.43
2019-01-12T11:49:19.173Z,40.60
2019-01-12T11:53:17.533Z,36.93
2019-01-12T11:57:19.325Z,40.40
2019-01-12T12:01:15.956Z,42.47
2019-01-12T12:05:20.958Z,37.27
2019-01-12T12:09:16.726Z,34.13
2019-01-12T12:13:15.071Z,35.00
2019-01-12T12:17:13.406Z,27.00
2019-01-12T12:21:11.795Z,28.97
2019-01-12T12:25:11.576Z,30.83
2019-01-12T12:29:10.513Z,30.43
2019-01-12T12:33:09.182Z,35.23
2019-01-12T12:37:07.741Z,31.27
2019-01-12T12:41:06.613Z,31.00
2019-01-12T12:45:11.052Z,27.47
2019-01-12T12:49:09.491Z,37.83
2019-01-12T12:53:10.812Z,33.50
2019-01-12T12:57:10.241Z,32.37
2019-01-12T13:01:10.670Z,31.47
2019-01-12T13:05:09.926Z,26.30
2019-01-12T13:09:08.352Z,29.90
2019-01-12T13:13:09.515Z,22.37
2019-01-12T13:17:08.099Z,25.00
2019-01-12T13:21:06.520Z,17.43
2019-01-12T13:25:09.274Z,19.60
2019-01-12T13:33:39.347Z,17.73
2019-01-12T13:37:37.666Z,18.43
2019-01-12T13:41:36.034Z,13.13
2019-01-12T13:45:34.489Z,19.30
2019-01-12T13:49:32.854Z,15.00
2019-01-12T13:53:32.877Z,12.53
2019-01-12T13:57:31.246Z,11.53
2019-01-12T14:01:30.145Z,13.30
2019-01-12T14:05:33.041Z,13.03
2019-01-12T14:09:31.424Z,11.40
2019-01-12T14:13:29.830Z,13.17
2019-01-12T14:17:29.083Z,15.67
2019-01-12T14:21:27.990Z,17.73
2019-01-12T14:25:27.253Z,19.23
2019-01-12T14:29:25.807Z,16.80
2019-01-12T14:33:24.179Z,12.93
2019-01-12T14:37:22.555Z,18.03
2019-01-12T14:41:22.569Z,12.00
2019-01-12T14:45:26.984Z,13.53
2019-01-12T14:49:25.375Z,10.90
2019-01-12T14:53:23.758Z,10.63
2019-01-12T14:57:22.146Z,9.27
2019-01-12T15:01:23.927Z,9.73
2019-01-12T15:05:24.709Z,9.70
2019-01-12T15:09:23.102Z,9.70
2019-01-12T15:13:27.957Z,12.03
2019-01-12T15:17:26.336Z,10.27
2019-01-12T15:21:24.769Z,13.73
2019-01-12T15:25:23.118Z,15.27
2019-01-12T15:29:21.498Z,9.13
2019-01-12T15:33:25.537Z,10.67
2019-01-12T15:37:24.604Z,9.20
2019-01-12T15:41:22.957Z,7.17
2019-01-12T15:45:23.598Z,11.43
2019-01-12T15:49:23.610Z,11.83
2019-01-12T15:53:22.007Z,10.27
2019-01-12T15:57:20.389Z,15.73
2019-01-12T16:01:18.754Z,10.33
2019-01-12T16:05:17.179Z,12.93
2019-01-12T16:09:19.600Z,12.03
2019-01-12T16:13:15.596Z,15.93
2019-01-12T16:17:13.982Z,12.97
2019-01-12T16:21:12.365Z,15.43
2019-01-12T16:25:11.416Z,13.93
2019-01-12T16:29:11.863Z,14.40
2019-01-12T16:33:15.011Z,16.03
2019-01-12T16:37:13.409Z,14.50
2019-01-12T16:41:11.852Z,12.80
2019-01-12T16:45:10.735Z,17.27
2019-01-12T16:49:09.431Z,13.17
2019-01-12T16:53:15.732Z,16.37
2019-01-12T16:57:14.138Z,16.87
2019-01-12T17:01:13.006Z,20.93
2019-01-12T17:05:11.589Z,21.97
2019-01-12T17:09:09.886Z,22.87
2019-01-12T17:13:08.262Z,21.50
2019-01-12T17:17:06.729Z,23.40
2019-01-12T17:21:05.150Z,30.50
2019-01-12T17:25:03.639Z,25.93
2019-01-12T17:29:02.092Z,23.20
2019-01-12T17:33:00.530Z,26.73
2019-01-12T17:36:59.151Z,27.77
2019-01-12T17:40:57.755Z,25.57
2019-01-12T17:44:56.238Z,30.70
2019-01-12T17:48:55.910Z,21.77
2019-01-12T17:52:54.224Z,18.50
2019-01-12T17:56:52.635Z,22.53
2019-01-12T18:00:51.085Z,19.47
2019-01-12T18:04:49.393Z,26.67
2019-01-12T18:08:47.802Z,23.40
2019-01-12T18:12:46.613Z,24.80
2019-01-12T18:16:46.949Z,18.77
2019-01-12T18:20:47.195Z,24.90
2019-01-12T18:24:45.504Z,22.13
2019-01-12T18:28:43.942Z,19.40
2019-01-12T18:32:42.309Z,19.77
2019-01-12T18:36:40.699Z,19.23
2019-01-12T18:40:39.082Z,18.70
2019-01-12T18:44:40.563Z,27.60
2019-01-12T18:48:38.931Z,24.23
2019-01-12T18:52:37.240Z,30.10
2019-01-12T18:56:35.657Z,25.43
2019-01-12T19:00:34.004Z,19.53
2019-01-12T19:04:32.410Z,26.27
2019-01-12T19:08:30.797Z,19.70
2019-01-12T19:12:32.627Z,16.53
2019-01-12T19:16:31.028Z,19.63
2019-01-12T19:20:29.758Z,22.83
2019-01-12T19:24:28.163Z,16.27
2019-01-12T19:28:26.557Z,20.93
2019-01-12T19:32:25.023Z,23.33
2019-01-12T19:36:23.356Z,24.67
2019-01-12T19:40:22.889Z,19.00
2019-01-12T19:44:21.329Z,25.77
2019-01-12T19:48:19.689Z,24.00
2019-01-12T19:52:18.057Z,28.67
2019-01-12T19:56:16.449Z,24.47
2019-01-12T20:00:26.266Z,28.20
2019-01-12T20:04:24.646Z,28.90
2019-01-12T20:08:23.018Z,40.23
2019-01-12T20:12:21.397Z,39.93
2019-01-12T20:16:19.783Z,22.47
2019-01-12T20:20:18.172Z,34.30
2019-01-12T20:24:18.495Z,26.50
2019-01-12T20:28:16.675Z,26.17
2019-01-12T20:32:27.001Z,23.20
2019-01-12T20:36:37.279Z,28.10
2019-01-12T20:40:53.697Z,18.10
2019-01-12T20:45:22.332Z,23.57
2019-01-12T20:49:26.917Z,23.90
2019-01-12T20:53:43.118Z,29.23
2019-01-12T20:57:47.720Z,34.07
2019-01-12T21:01:49.346Z,30.17
2019-01-12T21:05:56.828Z,33.87
2019-01-12T21:10:16.244Z,25.57
2019-01-12T21:14:23.531Z,33.40
2019-01-12T21:18:21.963Z,27.07
2019-01-12T21:22:20.324Z,27.67
2019-01-12T21:26:21.894Z,29.57
2019-01-12T21:30:20.263Z,20.80
2019-01-12T21:34:21.574Z,24.93
2019-01-12T21:38:25.946Z,21.87
2019-01-12T21:42:20.101Z,21.03
2019-01-12T21:46:20.840Z,21.60
2019-01-12T21:50:19.239Z,20.37
2019-01-12T21:54:17.603Z,23.70
2019-01-12T21:58:17.855Z,37.33
2019-01-12T22:02:16.166Z,28.80
2019-01-12T22:06:14.916Z,29.83
2019-01-12T22:10:19.291Z,28.40
2019-01-12T22:14:15.990Z,28.40
2019-01-12T22:18:15.156Z,32.77
2019-01-12T22:22:13.558Z,36.10
2019-01-12T22:26:14.972Z,27.97
2019-01-12T22:30:30.957Z,30.30
2019-01-12T22:34:30.578Z,27.57
2019-01-12T22:38:30.897Z,31.93
2019-01-12T22:42:29.303Z,32.77
2019-01-12T22:46:27.776Z,33.07
2019-01-12T22:50:26.270Z,33.87
2019-01-12T22:54:26.066Z,27.00
2019-01-12T22:58:26.880Z,31.03
2019-01-12T23:02:25.372Z,26.43
2019-01-12T23:06:37.145Z,32.90
2019-01-12T23:10:35.601Z,30.77
2019-01-12T23:14:33.978Z,29.63
2019-01-12T23:18:32.482Z,29.97
2019-01-12T23:22:30.977Z,29.20
2019-01-12T23:26:29.366Z,30.40
2019-01-12T23:30:27.775Z,42.87
2019-01-12T23:34:26.187Z,37.97
2019-01-12T23:38:26.420Z,33.23
2019-01-12T23:42:31.006Z,29.80
2019-01-12T23:46:29.405Z,37.03
2019-01-12T23:50:28.122Z,39.03
2019-01-12T23:54:27.013Z,31.50
2019-01-12T23:58:28.635Z,34.07
